Brockton, Massachusetts
Current Conditions -  °F | °C
As of 6:06 AM on Friday 28 Nov 2014 (Local Time) from KOWD Reporting Station
Overcast Overcast  
Wind Chill: 22°   Ceiling: 3100
Heat Index: 30°   Visibility: 10mi
Dew Point: 25°   Wind: 9mph
Humidity: 82%   Direction: 320°NW
Pressure: 30.02"   Gusts: NA
Location:  42.08°N, 71.02°W
Report Text: KOWD 281106Z AUTO 32008KT 10SM OVC031 M01/M04 A3002 RMK AO2 T10111039
Loading
Personal Weather Stations






























Interactive Weather Map New forecast layout! Learn more

10-Day Weather Forecast

Advertisements
Track Severe Weather on mobile